createdAt,value
2015-12-26T00:00:03.480Z,29.22
2015-12-26T00:00:15.920Z,29.12
2015-12-26T00:00:28.280Z,29.03
2015-12-26T00:00:40.639Z,29.22
2015-12-26T00:00:52.999Z,29.12
2015-12-26T00:01:05.202Z,29.12
2015-12-26T00:01:17.563Z,29.03
2015-12-26T00:01:29.922Z,29.12
2015-12-26T00:01:42.313Z,29.31
2015-12-26T00:01:54.672Z,29.31
2015-12-26T00:02:06.344Z,29.31
2015-12-26T00:02:18.754Z,29.12
2015-12-26T00:02:31.129Z,29.31
2015-12-26T00:02:43.519Z,29.03
2015-12-26T00:02:55.879Z,29.12
2015-12-26T00:03:08.222Z,29.12
2015-12-26T00:03:20.585Z,29.12
2015-12-26T00:03:32.928Z,29.03
2015-12-26T00:03:45.288Z,28.84
2015-12-26T00:03:57.632Z,29.03
2015-12-26T00:04:09.991Z,29.03
2015-12-26T00:04:22.322Z,29.03
2015-12-26T00:04:34.697Z,28.93
2015-12-26T00:04:47.041Z,28.93
2015-12-26T00:04:58.713Z,29.03
2015-12-26T00:05:11.088Z,29.12
2015-12-26T00:05:23.449Z,28.93
2015-12-26T00:05:35.840Z,29.12
2015-12-26T00:05:48.215Z,29.03
2015-12-26T00:06:00.605Z,29.22
2015-12-26T00:06:12.980Z,29.03
2015-12-26T00:06:25.327Z,29.12
2015-12-26T00:06:37.686Z,29.12
2015-12-26T00:06:50.046Z,29.12
2015-12-26T00:07:02.421Z,29.31
2015-12-26T00:07:14.765Z,29.6
2015-12-26T00:07:27.127Z,29.12
2015-12-26T00:07:39.471Z,29.22
2015-12-26T00:07:51.846Z,29.22
2015-12-26T00:08:04.189Z,29.31
2015-12-26T00:08:16.549Z,29.22
2015-12-26T00:08:28.927Z,29.31
2015-12-26T00:08:41.302Z,29.22
2015-12-26T00:08:53.677Z,29.41
2015-12-26T00:09:06.052Z,29.22
2015-12-26T00:09:18.442Z,29.22
2015-12-26T00:09:30.819Z,29.31
2015-12-26T00:09:43.210Z,29.12
2015-12-26T00:09:55.585Z,29.5
2015-12-26T00:10:07.976Z,29.41
2015-12-26T00:10:20.335Z,29.12
2015-12-26T00:10:32.696Z,29.03
2015-12-26T00:10:45.056Z,29.12
2015-12-26T00:10:57.415Z,29.12
2015-12-26T00:11:09.775Z,29.12
2015-12-26T00:11:22.118Z,29.12
2015-12-26T00:11:34.481Z,29.22
2015-12-26T00:11:46.840Z,29.12
2015-12-26T00:11:59.199Z,29.22
2015-12-26T00:12:11.559Z,29.22
2015-12-26T00:12:23.934Z,29.6
2015-12-26T00:12:36.327Z,29.41
2015-12-26T00:12:48.702Z,29.5
2015-12-26T00:13:01.062Z,29.5
2015-12-26T00:13:13.452Z,29.22
2015-12-26T00:13:25.827Z,29.5
2015-12-26T00:13:38.221Z,29.69
2015-12-26T00:13:50.596Z,29.31
2015-12-26T00:14:03.002Z,29.31
2015-12-26T00:14:15.377Z,29.41
2015-12-26T00:14:27.784Z,29.6
2015-12-26T00:14:40.146Z,29.6
2015-12-26T00:14:52.490Z,29.69
2015-12-26T00:15:04.833Z,29.6
2015-12-26T00:15:17.193Z,29.5
2015-12-26T00:15:29.552Z,29.88
2015-12-26T00:15:41.915Z,29.5
2015-12-26T00:15:54.258Z,29.6
2015-12-26T00:16:06.618Z,29.88
2015-12-26T00:16:18.961Z,29.6
2015-12-26T00:16:31.321Z,29.6
2015-12-26T00:16:43.683Z,29.69
2015-12-26T00:16:56.058Z,29.5
2015-12-26T00:17:08.418Z,29.6
2015-12-26T00:17:20.777Z,29.41
2015-12-26T00:17:33.168Z,29.31
2015-12-26T00:17:45.561Z,29.41
2015-12-26T00:17:57.952Z,29.5
2015-12-26T00:18:10.342Z,29.22
2015-12-26T00:18:22.717Z,29.5
2015-12-26T00:18:35.077Z,29.41
2015-12-26T00:18:47.438Z,29.41
2015-12-26T00:18:59.782Z,29.6
2015-12-26T00:19:12.126Z,29.22
2015-12-26T00:19:24.485Z,29.5
2015-12-26T00:19:36.829Z,29.41
2015-12-26T00:19:49.285Z,29.41
2015-12-26T00:20:01.660Z,29.5
2015-12-26T00:20:14.004Z,29.5
2015-12-26T00:20:25.910Z,29.41
2015-12-26T00:20:38.269Z,29.41
2015-12-26T00:20:50.632Z,29.41
2015-12-26T00:21:03.007Z,29.41
2015-12-26T00:21:15.366Z,29.31
2015-12-26T00:21:27.757Z,29.41
2015-12-26T00:21:40.147Z,29.5
2015-12-26T00:21:52.540Z,29.31
2015-12-26T00:22:04.915Z,29.6
2015-12-26T00:22:17.290Z,29.12
2015-12-26T00:22:29.665Z,29.12
2015-12-26T00:22:42.009Z,29.12
2015-12-26T00:22:54.371Z,29.22
2015-12-26T00:23:06.730Z,29.22
2015-12-26T00:23:19.074Z,29.22
2015-12-26T00:23:31.434Z,29.22
2015-12-26T00:23:43.793Z,29.22
2015-12-26T00:23:56.140Z,29.22
2015-12-26T00:24:08.499Z,29.41
2015-12-26T00:24:20.858Z,29.03
2015-12-26T00:24:33.233Z,29.22
2015-12-26T00:24:45.608Z,29.22
2015-12-26T00:24:57.985Z,29.12
2015-12-26T00:25:10.360Z,29.12
2015-12-26T00:25:22.751Z,29.6
2015-12-26T00:25:34.407Z,29.41
2015-12-26T00:25:46.814Z,29.41
2015-12-26T00:25:59.192Z,29.41
2015-12-26T00:26:11.551Z,29.6
2015-12-26T00:26:23.895Z,29.41
2015-12-26T00:26:36.270Z,29.41
2015-12-26T00:26:48.645Z,29.5
2015-12-26T00:27:00.288Z,29.41
2015-12-26T00:27:12.648Z,29.5
2015-12-26T00:27:25.007Z,29.5
2015-12-26T00:27:37.351Z,29.5
2015-12-26T00:27:49.710Z,29.22
2015-12-26T00:28:02.072Z,29.6
2015-12-26T00:28:14.431Z,29.6
2015-12-26T00:28:26.790Z,29.6
2015-12-26T00:28:38.447Z,29.6
2015-12-26T00:28:50.806Z,29.41
2015-12-26T00:29:03.185Z,29.69
2015-12-26T00:29:15.560Z,29.6
2015-12-26T00:29:27.951Z,29.6
2015-12-26T00:29:40.357Z,29.79
2015-12-26T00:29:52.732Z,29.5
2015-12-26T00:30:05.140Z,29.6
2015-12-26T00:30:17.484Z,29.6
2015-12-26T00:30:29.859Z,29.5
2015-12-26T00:30:42.203Z,29.5
2015-12-26T00:30:54.565Z,29.5
2015-12-26T00:31:06.924Z,29.5
2015-12-26T00:31:19.268Z,29.69
2015-12-26T00:31:31.627Z,29.5
2015-12-26T00:31:43.971Z,29.5
2015-12-26T00:31:56.333Z,29.5
2015-12-26T00:32:08.676Z,29.69
2015-12-26T00:32:21.051Z,29.6
2015-12-26T00:32:33.411Z,29.5
2015-12-26T00:32:45.786Z,29.69
2015-12-26T00:32:58.164Z,30.07
2015-12-26T00:33:10.554Z,30.07
2015-12-26T00:33:22.929Z,29.97
2015-12-26T00:33:35.336Z,30.07
2015-12-26T00:33:47.726Z,29.6
2015-12-26T00:34:00.120Z,29.88
2015-12-26T00:34:12.479Z,29.79
2015-12-26T00:34:24.823Z,29.6
2015-12-26T00:34:37.182Z,29.88
2015-12-26T00:34:49.542Z,29.79
2015-12-26T00:35:01.748Z,29.79
2015-12-26T00:35:14.092Z,29.88
2015-12-26T00:35:26.467Z,29.5
2015-12-26T00:35:38.810Z,29.79
2015-12-26T00:35:51.170Z,29.88
2015-12-26T00:36:03.532Z,30.07
2015-12-26T00:36:15.735Z,30.07
2015-12-26T00:36:28.095Z,30.16
2015-12-26T00:36:40.470Z,29.97
2015-12-26T00:36:52.845Z,29.88
2015-12-26T00:37:05.082Z,29.88
2015-12-26T00:37:17.473Z,29.88
2015-12-26T00:37:29.848Z,29.69
2015-12-26T00:37:42.238Z,29.79
2015-12-26T00:37:54.473Z,29.79
2015-12-26T00:38:06.834Z,29.79
2015-12-26T00:38:19.178Z,29.88
2015-12-26T00:38:31.537Z,29.88
2015-12-26T00:38:43.896Z,30.07
2015-12-26T00:38:55.521Z,29.97
2015-12-26T00:39:07.883Z,30.07
2015-12-26T00:39:20.242Z,30.07
2015-12-26T00:39:32.586Z,30.07
2015-12-26T00:39:44.945Z,30.07
2015-12-26T00:39:57.305Z,30.07
2015-12-26T00:40:09.667Z,29.97
2015-12-26T00:40:22.042Z,30.07
2015-12-26T00:40:34.417Z,30.07
2015-12-26T00:40:46.823Z,30.07
2015-12-26T00:40:59.214Z,30.16
2015-12-26T00:41:11.609Z,29.97
2015-12-26T00:41:23.984Z,29.88
2015-12-26T00:41:36.359Z,29.97
2015-12-26T00:41:48.702Z,30.07
2015-12-26T00:42:01.062Z,30.07
2015-12-26T00:42:13.407Z,29.88
2015-12-26T00:42:25.782Z,29.88
2015-12-26T00:42:38.142Z,29.97
2015-12-26T00:42:50.501Z,30.35
2015-12-26T00:43:02.861Z,30.16
2015-12-26T00:43:15.223Z,30.16
2015-12-26T00:43:27.567Z,30.16
2015-12-26T00:43:39.926Z,30.16
2015-12-26T00:43:52.301Z,30.16
2015-12-26T00:44:03.957Z,30.35
2015-12-26T00:44:16.319Z,30.16
2015-12-26T00:44:28.709Z,30.16
2015-12-26T00:44:41.100Z,30.07
2015-12-26T00:44:53.475Z,30.16
2015-12-26T00:45:05.881Z,30.16
2015-12-26T00:45:18.259Z,30.16
2015-12-26T00:45:30.603Z,29.88
2015-12-26T00:45:42.962Z,29.88
2015-12-26T00:45:55.322Z,29.79
2015-12-26T00:46:07.681Z,29.88
2015-12-26T00:46:20.028Z,29.97
2015-12-26T00:46:32.387Z,29.79
2015-12-26T00:46:44.731Z,29.88
2015-12-26T00:46:57.106Z,29.97
2015-12-26T00:47:09.450Z,29.79
2015-12-26T00:47:21.796Z,29.79
2015-12-26T00:47:34.171Z,29.88
2015-12-26T00:47:45.687Z,29.79
2015-12-26T00:47:58.062Z,29.88
2015-12-26T00:48:10.421Z,29.97
2015-12-26T00:48:22.814Z,30.07
2015-12-26T00:48:35.205Z,30.16
2015-12-26T00:48:47.580Z,30.07
2015-12-26T00:48:59.939Z,30.07
2015-12-26T00:49:12.301Z,29.97
2015-12-26T00:49:24.645Z,30.07
2015-12-26T00:49:37.020Z,29.97
2015-12-26T00:49:49.380Z,29.88
2015-12-26T00:50:01.739Z,29.97
2015-12-26T00:50:14.101Z,29.6
2015-12-26T00:50:26.461Z,29.5
2015-12-26T00:50:38.820Z,29.5
2015-12-26T00:50:51.164Z,29.79
2015-12-26T00:51:03.539Z,29.6
2015-12-26T00:51:15.916Z,29.69
2015-12-26T00:51:28.275Z,29.79
2015-12-26T00:51:40.666Z,29.6
2015-12-26T00:51:53.041Z,29.5
2015-12-26T00:52:05.431Z,30.07
2015-12-26T00:52:17.825Z,29.97
2015-12-26T00:52:30.216Z,29.97
2015-12-26T00:52:42.575Z,29.97
2015-12-26T00:52:54.919Z,29.79
2015-12-26T00:53:07.278Z,30.16
2015-12-26T00:53:19.641Z,30.44
2015-12-26T00:53:32.000Z,29.79
2015-12-26T00:53:44.344Z,29.79
2015-12-26T00:53:56.703Z,29.79
2015-12-26T00:54:09.047Z,30.35
2015-12-26T00:54:21.408Z,30.16
2015-12-26T00:54:33.768Z,29.79
2015-12-26T00:54:46.127Z,29.88
2015-12-26T00:54:58.502Z,30.35
2015-12-26T00:55:10.877Z,30.16
2015-12-26T00:55:23.255Z,30.16
2015-12-26T00:55:35.646Z,30.35
2015-12-26T00:55:48.021Z,30.35
2015-12-26T00:56:00.411Z,30.44
2015-12-26T00:56:12.805Z,30.44
2015-12-26T00:56:25.164Z,30.73
2015-12-26T00:56:37.524Z,30.73
2015-12-26T00:56:49.883Z,30.73
2015-12-26T00:57:02.227Z,30.91
2015-12-26T00:57:14.588Z,30.73
2015-12-26T00:57:26.932Z,30.44
2015-12-26T00:57:39.291Z,30.54
2015-12-26T00:57:51.651Z,30.54
2015-12-26T00:58:04.010Z,31.2
2015-12-26T00:58:16.357Z,31.1
2015-12-26T00:58:28.013Z,31.01
2015-12-26T00:58:40.372Z,31.29
2015-12-26T00:58:52.747Z,31.2
2015-12-26T00:59:05.107Z,31.01
2015-12-26T00:59:17.485Z,31.1
2015-12-26T00:59:29.860Z,31.1
2015-12-26T00:59:42.266Z,30.91
2015-12-26T00:59:54.610Z,31.2
2015-12-26T01:00:06.953Z,31.01
2015-12-26T01:00:19.300Z,30.91
2015-12-26T01:00:31.660Z,30.91
2015-12-26T01:00:44.003Z,30.91
2015-12-26T01:00:56.347Z,31.01
2015-12-26T01:01:08.706Z,30.63
2015-12-26T01:01:21.084Z,30.91
2015-12-26T01:01:33.444Z,31.01
2015-12-26T01:01:45.803Z,30.91
2015-12-26T01:01:58.178Z,31.2
2015-12-26T01:02:10.553Z,30.91
2015-12-26T01:02:22.930Z,30.82
2015-12-26T01:02:35.321Z,31.2
2015-12-26T01:02:47.711Z,31.01
2015-12-26T01:03:00.086Z,31.01
2015-12-26T01:03:12.461Z,31.2
2015-12-26T01:03:24.824Z,31.2
2015-12-26T01:03:37.183Z,31.01
2015-12-26T01:03:49.543Z,30.91
2015-12-26T01:04:01.886Z,31.01
2015-12-26T01:04:14.246Z,31.01
2015-12-26T01:04:26.591Z,31.29
2015-12-26T01:04:38.951Z,31.58
2015-12-26T01:04:51.341Z,31.2
2015-12-26T01:05:03.701Z,30.91
2015-12-26T01:05:16.076Z,31.48
2015-12-26T01:05:28.454Z,31.29
2015-12-26T01:05:40.844Z,31.29
2015-12-26T01:05:53.219Z,31.1
2015-12-26T01:06:05.626Z,31.01
2015-12-26T01:06:18.019Z,31.01
2015-12-26T01:06:30.379Z,31.2
2015-12-26T01:06:42.738Z,31.1
2015-12-26T01:06:55.082Z,31.2
2015-12-26T01:07:07.441Z,31.2
2015-12-26T01:07:19.804Z,31.1
2015-12-26T01:07:32.147Z,31.1
2015-12-26T01:07:44.522Z,30.91
2015-12-26T01:07:56.866Z,30.73
2015-12-26T01:08:09.225Z,30.82
2015-12-26T01:08:21.588Z,31.1
2015-12-26T01:08:33.963Z,31.01
2015-12-26T01:08:46.338Z,31.2
2015-12-26T01:08:58.713Z,30.91
2015-12-26T01:09:11.088Z,30.82
2015-12-26T01:09:23.496Z,31.39
2015-12-26T01:09:35.855Z,31.01
2015-12-26T01:09:48.199Z,30.73
2015-12-26T01:10:00.559Z,31.01
2015-12-26T01:10:12.902Z,31.2
2015-12-26T01:10:25.264Z,31.2
2015-12-26T01:10:37.607Z,31.2
2015-12-26T01:10:49.264Z,31.01
2015-12-26T01:11:01.623Z,31.2
2015-12-26T01:11:13.967Z,31.2
2015-12-26T01:11:25.611Z,30.91
2015-12-26T01:11:37.986Z,31.01
2015-12-26T01:11:50.361Z,31.01
2015-12-26T01:12:02.736Z,31.29
2015-12-26T01:12:15.111Z,31.2
2015-12-26T01:12:27.504Z,31.1
2015-12-26T01:12:39.879Z,31.2
2015-12-26T01:12:52.254Z,31.2
2015-12-26T01:13:04.629Z,31.1
2015-12-26T01:13:17.020Z,31.1
2015-12-26T01:13:29.366Z,30.63
2015-12-26T01:13:41.757Z,31.01
2015-12-26T01:13:54.116Z,31.01
2015-12-26T01:14:06.460Z,31.2
2015-12-26T01:14:18.820Z,31.01
2015-12-26T01:14:31.182Z,31.01
2015-12-26T01:14:43.526Z,31.29
2015-12-26T01:14:55.885Z,31.39
2015-12-26T01:15:08.229Z,31.2
2015-12-26T01:15:20.573Z,31.2
2015-12-26T01:15:32.950Z,30.73
2015-12-26T01:15:45.325Z,31.29
2015-12-26T01:15:57.700Z,31.1
2015-12-26T01:16:10.075Z,31.01
2015-12-26T01:16:22.465Z,30.73
2015-12-26T01:16:34.844Z,31.1
2015-12-26T01:16:47.235Z,31.48
2015-12-26T01:16:59.641Z,31.01
2015-12-26T01:17:12.032Z,30.91
2015-12-26T01:17:24.422Z,31.01
2015-12-26T01:17:36.785Z,31.01
2015-12-26T01:17:49.144Z,31.1
2015-12-26T01:18:01.488Z,31.01
2015-12-26T01:18:13.847Z,31.1
2015-12-26T01:18:26.207Z,31.01
2015-12-26T01:18:38.568Z,30.91
2015-12-26T01:18:50.912Z,31.01
2015-12-26T01:19:03.271Z,30.91
2015-12-26T01:19:15.630Z,31.1
2015-12-26T01:19:27.974Z,30.73
2015-12-26T01:19:40.352Z,31.1
2015-12-26T01:19:52.727Z,30.91
2015-12-26T01:20:05.102Z,31.01
2015-12-26T01:20:17.477Z,31.01
2015-12-26T01:20:29.899Z,31.01
2015-12-26T01:20:42.276Z,31.01
2015-12-26T01:20:54.667Z,31.01
2015-12-26T01:21:07.073Z,30.91
2015-12-26T01:21:19.464Z,31.1
2015-12-26T01:21:31.807Z,30.91
2015-12-26T01:21:44.013Z,31.2
2015-12-26T01:22:31.888Z,31.1
2015-12-26T01:22:44.251Z,30.91
2015-12-26T01:22:56.610Z,30.91
2015-12-26T01:23:08.970Z,30.91
2015-12-26T01:23:21.329Z,30.82
2015-12-26T01:23:33.704Z,31.39
2015-12-26T01:23:46.066Z,31.39
2015-12-26T01:23:58.426Z,30.73
2015-12-26T01:24:10.801Z,31.01
2015-12-26T01:24:23.176Z,31.01
2015-12-26T01:24:35.582Z,30.82
2015-12-26T01:24:47.976Z,31.01
2015-12-26T01:25:00.366Z,31.2
2015-12-26T01:25:12.757Z,31.1
2015-12-26T01:25:25.132Z,30.91
2015-12-26T01:25:37.522Z,30.63
2015-12-26T01:25:49.884Z,30.63
2015-12-26T01:26:02.243Z,30.82
2015-12-26T01:26:14.603Z,30.82
2015-12-26T01:26:26.946Z,30.73
2015-12-26T01:26:39.306Z,30.73
2015-12-26T01:26:51.652Z,30.73
2015-12-26T01:27:04.012Z,30.82
2015-12-26T01:27:16.371Z,30.73
2015-12-26T01:27:28.731Z,30.82
2015-12-26T01:27:41.074Z,30.54
2015-12-26T01:27:53.451Z,30.73
2015-12-26T01:28:05.826Z,30.73
2015-12-26T01:28:18.186Z,30.82
2015-12-26T01:28:30.592Z,30.73
2015-12-26T01:28:42.967Z,30.73
2015-12-26T01:28:55.345Z,30.73
2015-12-26T01:29:07.720Z,30.82
2015-12-26T01:29:20.126Z,30.73
2015-12-26T01:29:32.486Z,30.54
2015-12-26T01:29:44.845Z,30.54
2015-12-26T01:29:57.239Z,30.73
2015-12-26T01:30:09.582Z,30.35
2015-12-26T01:30:21.942Z,30.63
2015-12-26T01:30:34.285Z,30.35
2015-12-26T01:30:46.660Z,30.26
2015-12-26T01:30:59.023Z,30.26
2015-12-26T01:31:11.367Z,30.26
2015-12-26T01:31:23.726Z,30.35
2015-12-26T01:31:36.101Z,30.07
2015-12-26T01:31:48.460Z,30.26
2015-12-26T01:32:00.837Z,30.35
2015-12-26T01:32:13.040Z,30.35
2015-12-26T01:32:25.431Z,30.26
2015-12-26T01:32:37.806Z,30.35
2015-12-26T01:32:50.228Z,30.44
2015-12-26T01:33:02.607Z,30.35
2015-12-26T01:33:14.982Z,30.26
2015-12-26T01:33:26.623Z,30.35
2015-12-26T01:33:38.966Z,30.54
2015-12-26T01:33:51.326Z,30.44
2015-12-26T01:34:03.688Z,30.35
2015-12-26T01:34:16.047Z,30.35
2015-12-26T01:34:28.391Z,30.26
2015-12-26T01:34:40.751Z,30.26
2015-12-26T01:34:53.094Z,30.26
2015-12-26T01:35:05.299Z,30.26
2015-12-26T01:35:17.659Z,30.07
2015-12-26T01:35:30.034Z,30.26
2015-12-26T01:35:42.409Z,30.26
2015-12-26T01:35:54.784Z,30.07
2015-12-26T01:36:07.162Z,30.26
2015-12-26T01:36:19.568Z,30.16
2015-12-26T01:36:31.943Z,30.35
2015-12-26T01:36:44.334Z,30.35
2015-12-26T01:36:56.709Z,30.26
2015-12-26T01:37:09.086Z,30.16
2015-12-26T01:37:21.429Z,30.16
2015-12-26T01:37:33.773Z,30.26
2015-12-26T01:37:46.101Z,30.16
2015-12-26T01:37:58.461Z,30.16
2015-12-26T01:38:10.807Z,30.07
2015-12-26T01:38:23.167Z,30.07
2015-12-26T01:38:35.511Z,30.07
2015-12-26T01:38:47.870Z,30.16
2015-12-26T01:39:00.229Z,30.26
2015-12-26T01:39:12.592Z,30.26
2015-12-26T01:39:24.951Z,30.26
2015-12-26T01:39:37.310Z,30.26
2015-12-26T01:39:48.967Z,30.35
2015-12-26T01:40:01.342Z,30.16
2015-12-26T01:40:13.704Z,30.16
2015-12-26T01:40:26.079Z,30.26
2015-12-26T01:40:38.470Z,30.16
2015-12-26T01:40:50.860Z,30.16
2015-12-26T01:41:03.251Z,29.88
2015-12-26T01:41:15.628Z,30.35
2015-12-26T01:41:28.003Z,29.69
2015-12-26T01:41:40.362Z,29.79
2015-12-26T01:41:52.565Z,29.79
2015-12-26T01:42:04.925Z,30.16
2015-12-26T01:42:17.288Z,29.88
2015-12-26T01:42:29.632Z,30.26
2015-12-26T01:42:42.007Z,30.16
2015-12-26T01:42:54.366Z,30.16
2015-12-26T01:43:06.726Z,30.26
2015-12-26T01:43:19.087Z,30.16
2015-12-26T01:43:31.431Z,30.16
2015-12-26T01:43:43.790Z,30.16
2015-12-26T01:43:56.165Z,30.16
2015-12-26T01:44:08.542Z,30.16
2015-12-26T01:44:20.902Z,30.16
2015-12-26T01:44:33.277Z,30.07
2015-12-26T01:44:45.667Z,30.26
2015-12-26T01:44:58.058Z,30.26
2015-12-26T01:45:10.451Z,30.35
2015-12-26T01:45:22.842Z,30.35
2015-12-26T01:45:35.233Z,30.16
2015-12-26T01:45:47.623Z,29.88
2015-12-26T01:46:00.014Z,29.97
2015-12-26T01:46:12.361Z,29.79
2015-12-26T01:46:24.704Z,30.07
2015-12-26T01:46:37.064Z,30.07
2015-12-26T01:46:49.439Z,30.16
2015-12-26T01:47:01.783Z,30.07
2015-12-26T01:47:14.145Z,30.16
2015-12-26T01:47:26.504Z,30.07
2015-12-26T01:47:38.864Z,29.97
2015-12-26T01:47:51.223Z,29.88
2015-12-26T01:48:03.567Z,29.97
2015-12-26T01:48:15.944Z,30.07
2015-12-26T01:48:28.319Z,30.07
2015-12-26T01:48:40.694Z,29.88
2015-12-26T01:48:53.084Z,29.88
2015-12-26T01:49:05.459Z,29.88
2015-12-26T01:49:17.853Z,29.79
2015-12-26T01:49:30.228Z,29.79
2015-12-26T01:49:42.603Z,29.88
2015-12-26T01:49:55.009Z,29.97
2015-12-26T01:50:07.400Z,29.97
2015-12-26T01:50:19.746Z,30.07
2015-12-26T01:50:32.089Z,30.07
2015-12-26T01:50:44.308Z,29.97
2015-12-26T01:50:56.652Z,29.88
2015-12-26T01:51:09.011Z,29.6
2015-12-26T01:51:21.374Z,29.79
2015-12-26T01:51:33.733Z,29.6
2015-12-26T01:51:46.077Z,29.5
2015-12-26T01:51:58.452Z,29.69
2015-12-26T01:52:10.827Z,29.69
2015-12-26T01:52:23.189Z,29.79
2015-12-26T01:52:35.564Z,29.69
2015-12-26T01:52:47.955Z,29.5
2015-12-26T01:52:59.642Z,29.6
2015-12-26T01:53:12.017Z,29.41
2015-12-26T01:53:24.411Z,29.22
2015-12-26T01:53:36.770Z,29.22
2015-12-26T01:53:48.989Z,29.5
2015-12-26T01:54:01.348Z,29.5
2015-12-26T01:54:13.711Z,29.5
2015-12-26T01:54:26.055Z,29.41
2015-12-26T01:54:38.398Z,29.41
2015-12-26T01:54:50.758Z,29.5
2015-12-26T01:55:03.133Z,29.12
2015-12-26T01:55:15.479Z,29.41
2015-12-26T01:55:27.839Z,29.22
2015-12-26T01:55:40.198Z,29.12
2015-12-26T01:55:52.589Z,29.12
2015-12-26T01:56:04.964Z,29.12
2015-12-26T01:56:17.341Z,29.12
2015-12-26T01:56:29.778Z,29.31
2015-12-26T01:56:42.153Z,29.31
2015-12-26T01:56:54.560Z,29.22
2015-12-26T01:57:06.935Z,29.22
2015-12-26T01:57:19.297Z,29.31
2015-12-26T01:57:31.656Z,29.12
2015-12-26T01:57:44.016Z,29.31
2015-12-26T01:57:56.359Z,29.41
2015-12-26T01:58:08.719Z,29.41
2015-12-26T01:58:20.362Z,29.22
2015-12-26T01:58:32.722Z,29.22
2015-12-26T01:58:45.081Z,29.69
2015-12-26T01:58:57.441Z,29.5
2015-12-26T01:59:09.800Z,29.5
2015-12-26T01:59:22.146Z,29.5
2015-12-26T01:59:34.521Z,29.6
2015-12-26T01:59:46.880Z,29.6
2015-12-26T01:59:59.239Z,29.69
2015-12-26T02:00:11.630Z,29.6
2015-12-26T02:00:24.008Z,29.69
2015-12-26T02:00:36.399Z,29.69
2015-12-26T02:00:48.758Z,29.6
2015-12-26T02:01:01.117Z,29.5
2015-12-26T02:01:13.461Z,29.6
2015-12-26T02:01:25.838Z,29.79
2015-12-26T02:01:38.182Z,29.79
2015-12-26T02:01:50.541Z,29.69
2015-12-26T02:02:02.901Z,29.79
2015-12-26T02:02:15.260Z,29.6
2015-12-26T02:02:27.622Z,29.6
2015-12-26T02:02:39.982Z,29.88
2015-12-26T02:02:52.357Z,29.97
2015-12-26T02:03:04.732Z,29.88
2015-12-26T02:03:17.107Z,29.6
2015-12-26T02:03:29.485Z,29.6
2015-12-26T02:03:41.719Z,29.79
2015-12-26T02:03:54.110Z,29.88
2015-12-26T02:04:05.797Z,29.69
2015-12-26T02:04:18.188Z,29.6
2015-12-26T02:04:30.535Z,29.6
2015-12-26T02:04:42.894Z,29.6
2015-12-26T02:04:55.238Z,29.6
2015-12-26T02:05:06.878Z,29.69
2015-12-26T02:05:19.238Z,29.69
2015-12-26T02:05:31.585Z,29.79
2015-12-26T02:05:43.241Z,29.69
2015-12-26T02:05:55.616Z,29.6
2015-12-26T02:06:07.960Z,29.6
2015-12-26T02:06:20.303Z,29.79
2015-12-26T02:06:32.681Z,29.6
2015-12-26T02:06:45.041Z,29.6
2015-12-26T02:06:57.416Z,29.79
2015-12-26T02:07:09.634Z,29.5
2015-12-26T02:07:22.025Z,29.69
2015-12-26T02:07:34.403Z,29.69
2015-12-26T02:07:46.778Z,29.79
2015-12-26T02:07:59.169Z,29.79
2015-12-26T02:08:11.544Z,29.88
2015-12-26T02:08:23.887Z,29.88
2015-12-26T02:08:36.249Z,29.88
2015-12-26T02:08:48.593Z,29.97
2015-12-26T02:09:00.952Z,30.07
2015-12-26T02:09:13.311Z,29.88
2015-12-26T02:09:25.655Z,29.97
2015-12-26T02:09:38.033Z,30.16
2015-12-26T02:09:50.377Z,29.88
2015-12-26T02:10:02.752Z,30.07
2015-12-26T02:10:15.127Z,30.07
2015-12-26T02:10:27.502Z,29.88
2015-12-26T02:10:39.863Z,30.07
2015-12-26T02:10:52.238Z,30.16
2015-12-26T02:11:04.629Z,30.07
2015-12-26T02:11:17.004Z,30.16
2015-12-26T02:11:29.379Z,30.07
2015-12-26T02:11:41.788Z,30.07
2015-12-26T02:11:54.163Z,30.07
2015-12-26T02:12:06.507Z,29.97
2015-12-26T02:12:18.851Z,30.16
2015-12-26T02:12:31.194Z,29.97
2015-12-26T02:12:43.542Z,30.07
2015-12-26T02:12:55.886Z,30.07
2015-12-26T02:13:07.526Z,29.97
2015-12-26T02:13:19.886Z,29.97
2015-12-26T02:13:32.261Z,29.97
2015-12-26T02:13:44.622Z,30.07
2015-12-26T02:13:56.982Z,30.07
2015-12-26T02:14:09.357Z,29.97
2015-12-26T02:14:21.716Z,29.97
2015-12-26T02:14:34.091Z,30.07
2015-12-26T02:14:46.485Z,29.97
2015-12-26T02:14:58.875Z,29.88
2015-12-26T02:15:11.250Z,29.97
2015-12-26T02:15:23.641Z,30.07
2015-12-26T02:15:36.047Z,29.79
2015-12-26T02:15:48.409Z,29.5
2015-12-26T02:16:00.769Z,29.69
2015-12-26T02:16:13.113Z,29.6
2015-12-26T02:16:25.488Z,29.6
2015-12-26T02:16:37.847Z,29.22
2015-12-26T02:16:50.193Z,29.31
2015-12-26T02:17:02.552Z,29.41
2015-12-26T02:17:14.896Z,29.31
2015-12-26T02:17:27.255Z,29.31
2015-12-26T02:17:39.615Z,29.5
2015-12-26T02:17:51.977Z,29.31
2015-12-26T02:18:04.352Z,29.41
2015-12-26T02:18:16.727Z,29.31
2015-12-26T02:18:29.102Z,29.31
2015-12-26T02:18:41.493Z,29.31
2015-12-26T02:18:53.886Z,29.31
2015-12-26T02:19:06.277Z,29.31
2015-12-26T02:19:18.652Z,29.41
2015-12-26T02:19:31.058Z,29.5
2015-12-26T02:19:43.402Z,29.5
2015-12-26T02:19:55.764Z,29.31
2015-12-26T02:20:08.124Z,29.41
2015-12-26T02:20:20.499Z,29.22
2015-12-26T02:20:32.842Z,29.03
2015-12-26T02:20:45.202Z,29.12
2015-12-26T02:20:57.563Z,29.31
2015-12-26T02:21:09.907Z,29.12
2015-12-26T02:21:22.251Z,29.31
2015-12-26T02:21:34.626Z,29.12
2015-12-26T02:21:47.004Z,29.31
2015-12-26T02:21:59.379Z,29.31
2015-12-26T02:22:11.738Z,29.31
2015-12-26T02:22:24.129Z,29.03
2015-12-26T02:22:36.519Z,29.22
2015-12-26T02:22:48.896Z,29.22
2015-12-26T02:23:01.256Z,29.31
2015-12-26T02:23:13.599Z,29.6
2015-12-26T02:23:25.959Z,29.22
2015-12-26T02:23:38.318Z,29.31
2015-12-26T02:23:50.666Z,29.31
2015-12-26T02:24:03.025Z,29.31
2015-12-26T02:24:15.385Z,29.6
2015-12-26T02:24:27.728Z,29.31
2015-12-26T02:24:40.088Z,29.5
2015-12-26T02:24:52.466Z,29.31
2015-12-26T02:25:04.825Z,29.5
2015-12-26T02:25:17.200Z,29.41
2015-12-26T02:25:29.559Z,29.6
2015-12-26T02:25:41.966Z,29.31
2015-12-26T02:25:54.343Z,29.6
2015-12-26T02:26:06.718Z,29.6
2015-12-26T02:26:19.093Z,29.5
2015-12-26T02:26:31.468Z,29.41
2015-12-26T02:26:43.827Z,29.31
2015-12-26T02:26:56.188Z,29.41
2015-12-26T02:27:08.532Z,29.31
2015-12-26T02:27:20.876Z,29.31
2015-12-26T02:27:33.235Z,29.41
2015-12-26T02:27:45.595Z,29.6
2015-12-26T02:27:57.958Z,29.22
2015-12-26T02:28:10.302Z,29.31
2015-12-26T02:28:22.661Z,29.69
2015-12-26T02:28:34.286Z,29.6
2015-12-26T02:28:46.677Z,29.6
2015-12-26T02:28:59.038Z,29.5
2015-12-26T02:29:11.413Z,29.69
2015-12-26T02:29:23.804Z,29.5
2015-12-26T02:29:36.179Z,29.69
2015-12-26T02:29:48.585Z,29.69
2015-12-26T02:30:00.963Z,29.5
2015-12-26T02:30:13.354Z,29.79
2015-12-26T02:30:25.760Z,29.6
2015-12-26T02:30:38.104Z,29.79
2015-12-26T02:30:50.447Z,30.07
2015-12-26T02:31:02.810Z,29.97
2015-12-26T02:31:14.450Z,29.97
2015-12-26T02:31:26.810Z,29.97
2015-12-26T02:31:39.154Z,29.97
2015-12-26T02:31:51.513Z,30.07
2015-12-26T02:32:03.874Z,29.97
2015-12-26T02:32:16.218Z,30.07
2015-12-26T02:32:28.577Z,30.07
2015-12-26T02:32:40.952Z,30.07
2015-12-26T02:32:53.327Z,29.97
2015-12-26T02:33:05.705Z,30.07
2015-12-26T02:33:18.080Z,29.88
2015-12-26T02:33:30.455Z,29.79
2015-12-26T02:33:42.830Z,30.07
2015-12-26T02:33:55.221Z,30.07
2015-12-26T02:34:07.615Z,29.97
2015-12-26T02:34:20.005Z,29.97
2015-12-26T02:34:32.365Z,30.07
2015-12-26T02:34:44.708Z,29.97
2015-12-26T02:34:57.068Z,29.88
2015-12-26T02:35:09.430Z,30.07
2015-12-26T02:35:21.071Z,29.97
2015-12-26T02:35:33.415Z,30.07
2015-12-26T02:35:45.774Z,29.88
2015-12-26T02:35:58.118Z,29.88
2015-12-26T02:36:09.760Z,30.35
2015-12-26T02:36:22.120Z,30.16
2015-12-26T02:36:34.479Z,30.16
2015-12-26T02:36:46.885Z,29.79
2015-12-26T02:36:59.260Z,29.79
2015-12-26T02:37:11.638Z,29.97
2015-12-26T02:37:24.013Z,29.79
2015-12-26T02:37:36.404Z,29.88
2015-12-26T02:37:48.076Z,29.88
2015-12-26T02:38:00.451Z,29.88
2015-12-26T02:38:12.829Z,29.88
2015-12-26T02:38:25.173Z,29.88
2015-12-26T02:38:37.532Z,29.79
2015-12-26T02:38:49.891Z,29.79
2015-12-26T02:39:02.235Z,29.97
2015-12-26T02:39:14.596Z,29.88
2015-12-26T02:39:26.956Z,29.88
2015-12-26T02:39:39.315Z,30.16
2015-12-26T02:39:51.675Z,30.16
2015-12-26T02:40:04.034Z,30.16
2015-12-26T02:40:16.382Z,30.16
2015-12-26T02:40:28.757Z,30.07